createdAt,value
2019-03-01T00:01:46.955Z,8.87
2019-03-01T00:04:13.574Z,8.81
2019-03-01T00:06:40.138Z,8.76
2019-03-01T00:09:06.719Z,8.71
2019-03-01T00:11:33.376Z,8.68
2019-03-01T00:13:59.948Z,8.63
2019-03-01T00:16:26.530Z,8.58
2019-03-01T00:18:53.110Z,8.56
2019-03-01T00:21:19.677Z,8.52
2019-03-01T00:23:46.259Z,8.47
2019-03-01T00:26:12.833Z,8.42
2019-03-01T00:28:39.413Z,8.37
2019-03-01T00:31:05.984Z,8.34
2019-03-01T00:33:32.563Z,8.30
2019-03-01T00:35:59.176Z,8.24
2019-03-01T00:38:25.747Z,8.18
2019-03-01T00:40:52.314Z,8.11
2019-03-01T00:43:18.915Z,8.05
2019-03-01T00:45:45.554Z,7.99
2019-03-01T00:48:12.200Z,7.93
2019-03-01T00:50:38.770Z,7.87
2019-03-01T00:53:05.349Z,7.81
2019-03-01T00:55:31.910Z,7.73
2019-03-01T00:57:58.483Z,7.69
2019-03-01T01:00:25.078Z,7.63
2019-03-01T01:02:51.647Z,7.58
2019-03-01T01:05:18.221Z,7.55
2019-03-01T01:07:44.806Z,7.49
2019-03-01T01:10:11.382Z,7.43
2019-03-01T01:12:37.949Z,7.37
2019-03-01T01:15:04.514Z,7.33
2019-03-01T01:17:31.087Z,7.29
2019-03-01T01:19:57.655Z,7.26
2019-03-01T01:22:24.237Z,7.21
2019-03-01T01:24:50.880Z,7.17
2019-03-01T01:27:17.467Z,7.12
2019-03-01T01:29:44.051Z,7.09
2019-03-01T01:32:10.637Z,7.04
2019-03-01T01:34:37.209Z,7.00
2019-03-01T01:37:03.770Z,6.97
2019-03-01T01:39:30.347Z,6.96
2019-03-01T01:41:56.959Z,6.95
2019-03-01T01:44:23.537Z,6.93
2019-03-01T01:46:50.145Z,6.94
2019-03-01T01:49:16.718Z,6.94
2019-03-01T01:51:43.304Z,6.96
2019-03-01T01:54:09.914Z,6.95
2019-03-01T01:56:36.488Z,6.94
2019-03-01T01:59:03.061Z,6.94
2019-03-01T02:01:29.626Z,6.94
2019-03-01T02:03:56.232Z,6.93
2019-03-01T02:06:22.805Z,6.93
2019-03-01T02:08:49.412Z,6.93
2019-03-01T02:11:15.989Z,6.93
2019-03-01T02:13:42.603Z,6.91
2019-03-01T02:16:09.180Z,6.91
2019-03-01T02:18:35.783Z,6.91
2019-03-01T02:21:02.349Z,6.90
2019-03-01T02:23:28.973Z,6.87
2019-03-01T02:25:55.545Z,6.85
2019-03-01T02:28:22.145Z,6.82
2019-03-01T02:30:48.714Z,6.80
2019-03-01T02:33:15.332Z,6.79
2019-03-01T02:35:41.904Z,6.81
2019-03-01T02:38:08.571Z,6.81
2019-03-01T02:40:35.149Z,6.83
2019-03-01T02:43:01.771Z,6.85
2019-03-01T02:45:28.322Z,6.86
2019-03-01T02:47:54.935Z,6.86
2019-03-01T02:50:21.518Z,6.86
2019-03-01T02:52:48.149Z,6.86
2019-03-01T02:55:14.775Z,6.85
2019-03-01T02:57:41.361Z,6.84
2019-03-01T03:00:07.962Z,6.78
2019-03-01T03:02:34.577Z,6.75
2019-03-01T03:05:01.143Z,6.72
2019-03-01T03:07:27.719Z,6.68
2019-03-01T03:09:54.292Z,6.65
2019-03-01T03:12:20.892Z,6.61
2019-03-01T03:14:47.552Z,6.57
2019-03-01T03:17:14.217Z,6.54
2019-03-01T03:19:40.797Z,6.49
2019-03-01T03:22:07.363Z,6.40
2019-03-01T03:24:33.939Z,6.32
2019-03-01T03:27:00.519Z,6.25
2019-03-01T03:29:27.085Z,6.19
2019-03-01T03:31:53.695Z,6.12
2019-03-01T03:34:20.284Z,6.04
2019-03-01T03:36:46.911Z,5.95
2019-03-01T03:39:13.491Z,5.86
2019-03-01T03:41:40.073Z,5.81
2019-03-01T03:44:06.730Z,5.76
2019-03-01T03:46:33.330Z,5.74
2019-03-01T03:48:59.951Z,5.69
2019-03-01T03:51:26.539Z,5.62
2019-03-01T03:53:53.159Z,5.52
2019-03-01T03:56:19.729Z,5.40
2019-03-01T03:58:46.361Z,5.28
2019-03-01T04:01:13.135Z,5.20
2019-03-01T04:03:39.744Z,5.16
2019-03-01T04:06:06.317Z,5.12
2019-03-01T04:08:32.911Z,5.11
2019-03-01T04:10:59.492Z,5.09
2019-03-01T04:13:26.099Z,5.10
2019-03-01T04:15:52.669Z,5.09
2019-03-01T04:18:19.285Z,5.07
2019-03-01T04:20:45.842Z,5.03
2019-03-01T04:23:12.454Z,5.01
2019-03-01T04:25:39.087Z,4.99
2019-03-01T04:28:05.690Z,4.98
2019-03-01T04:30:32.249Z,4.97
2019-03-01T04:32:58.820Z,4.97
2019-03-01T04:35:25.399Z,4.93
2019-03-01T04:37:51.964Z,4.91
2019-03-01T04:40:18.544Z,4.87
2019-03-01T04:42:45.127Z,4.85
2019-03-01T04:45:11.737Z,4.81
2019-03-01T04:47:38.305Z,4.79
2019-03-01T04:50:04.919Z,4.74
2019-03-01T04:52:31.491Z,4.72
2019-03-01T04:54:58.086Z,4.70
2019-03-01T04:57:24.664Z,4.67
2019-03-01T04:59:51.251Z,4.67
2019-03-01T05:02:17.827Z,4.65
2019-03-01T05:04:44.452Z,4.62
2019-03-01T05:07:11.022Z,4.59
2019-03-01T05:09:37.617Z,4.58
2019-03-01T05:12:04.186Z,4.56
2019-03-01T05:14:30.785Z,4.54
2019-03-01T05:16:57.359Z,4.50
2019-03-01T05:19:24.107Z,4.46
2019-03-01T05:21:50.766Z,4.42
2019-03-01T05:24:17.352Z,4.39
2019-03-01T05:26:43.937Z,4.39
2019-03-01T05:29:10.521Z,4.38
2019-03-01T05:31:37.103Z,4.41
2019-03-01T05:34:03.717Z,4.44
2019-03-01T05:36:30.286Z,4.47
2019-03-01T05:38:56.891Z,4.51
2019-03-01T05:41:23.471Z,4.56
2019-03-01T05:43:50.067Z,4.62
2019-03-01T05:46:16.714Z,4.68
2019-03-01T05:48:43.331Z,4.73
2019-03-01T05:51:09.924Z,4.78
2019-03-01T05:53:36.514Z,4.80
2019-03-01T05:56:03.084Z,4.77
2019-03-01T05:58:29.695Z,4.74
2019-03-01T06:00:56.271Z,4.69
2019-03-01T06:03:22.843Z,4.68
2019-03-01T06:05:49.429Z,4.68
2019-03-01T06:08:16.005Z,4.69
2019-03-01T06:10:42.577Z,4.67
2019-03-01T06:13:09.152Z,4.59
2019-03-01T06:15:35.750Z,4.54
2019-03-01T06:18:02.318Z,4.50
2019-03-01T06:20:28.937Z,4.49
2019-03-01T06:22:55.518Z,4.52
2019-03-01T06:25:22.222Z,4.57
2019-03-01T06:27:48.800Z,4.64
2019-03-01T06:30:15.383Z,4.69
2019-03-01T06:32:42.321Z,4.73
2019-03-01T06:35:08.988Z,4.80
2019-03-01T06:37:35.559Z,4.84
2019-03-01T06:40:02.132Z,4.87
2019-03-01T06:42:28.706Z,4.92
2019-03-01T06:44:55.280Z,4.96
2019-03-01T06:47:21.866Z,4.99
2019-03-01T06:49:48.442Z,5.04
2019-03-01T06:52:15.054Z,5.07
2019-03-01T06:54:41.632Z,5.08
2019-03-01T06:57:08.228Z,5.12
2019-03-01T06:59:34.804Z,5.17
2019-03-01T07:02:02.881Z,5.26
2019-03-01T07:04:29.541Z,5.35
2019-03-01T07:06:56.120Z,5.41
2019-03-01T07:09:22.703Z,5.45
2019-03-01T07:11:49.285Z,5.43
2019-03-01T07:14:15.980Z,5.41
2019-03-01T07:16:42.550Z,5.37
2019-03-01T07:19:09.120Z,5.33
2019-03-01T07:21:35.695Z,5.33
2019-03-01T07:24:02.340Z,5.34
2019-03-01T07:26:28.962Z,5.37
2019-03-01T07:28:55.550Z,5.43
2019-03-01T07:31:22.123Z,5.51
2019-03-01T07:33:48.719Z,5.57
2019-03-01T07:36:15.299Z,5.60
2019-03-01T07:38:41.920Z,5.67
2019-03-01T07:41:08.491Z,5.73
2019-03-01T07:43:35.082Z,5.80
2019-03-01T07:46:01.661Z,5.84
2019-03-01T07:48:28.253Z,5.91
2019-03-01T07:50:55.192Z,5.96
2019-03-01T07:53:22.731Z,6.05
2019-03-01T07:55:49.315Z,6.11
2019-03-01T07:58:15.930Z,6.18
2019-03-01T08:00:42.503Z,6.25
2019-03-01T08:03:11.845Z,6.29
2019-03-01T08:05:39.553Z,6.33
2019-03-01T08:08:05.796Z,6.40
2019-03-01T08:10:32.437Z,6.45
2019-03-01T08:12:59.044Z,6.42
2019-03-01T08:15:25.620Z,6.39
2019-03-01T08:17:52.235Z,6.39
2019-03-01T08:20:18.811Z,6.39
2019-03-01T08:22:48.935Z,6.40
2019-03-01T08:25:13.716Z,6.40
2019-03-01T08:27:41.988Z,6.34
2019-03-01T08:30:10.370Z,6.32
2019-03-01T08:32:36.930Z,6.29
2019-03-01T08:35:05.235Z,6.33
2019-03-01T08:37:31.819Z,6.38
2019-03-01T08:39:58.392Z,6.42
2019-03-01T08:42:24.997Z,6.54
2019-03-01T08:44:54.660Z,6.64
2019-03-01T08:47:23.465Z,6.78
2019-03-01T08:49:48.188Z,6.91
2019-03-01T08:52:14.775Z,7.02
2019-03-01T08:54:41.356Z,7.16
2019-03-01T08:57:07.931Z,7.25
2019-03-01T08:59:34.510Z,7.36
2019-03-01T09:02:01.171Z,7.51
2019-03-01T09:04:27.746Z,7.64
2019-03-01T09:06:54.327Z,7.73
2019-03-01T09:09:21.914Z,7.90
2019-03-01T09:11:48.667Z,8.03
2019-03-01T09:14:15.263Z,8.17
2019-03-01T09:16:41.918Z,8.35
2019-03-01T09:19:08.492Z,8.51
2019-03-01T09:21:39.397Z,8.70
2019-03-01T09:24:05.601Z,8.87
2019-03-01T09:26:32.172Z,9.03
2019-03-01T09:28:58.747Z,9.21
2019-03-01T09:31:25.336Z,9.41
2019-03-01T09:33:53.720Z,9.61
2019-03-01T09:36:21.400Z,9.79
2019-03-01T09:38:48.169Z,9.97
2019-03-01T09:41:14.784Z,10.21
2019-03-01T09:43:41.364Z,10.41
2019-03-01T09:46:07.944Z,10.55
2019-03-01T09:48:34.540Z,10.64
2019-03-01T09:51:01.159Z,10.73
2019-03-01T09:53:30.670Z,10.89
2019-03-01T09:55:56.150Z,11.09
2019-03-01T09:58:22.824Z,11.24
2019-03-01T10:00:56.215Z,11.36
2019-03-01T10:03:17.695Z,11.46
2019-03-01T10:05:44.326Z,11.66
2019-03-01T10:08:10.962Z,11.91
2019-03-01T10:10:37.568Z,12.17
2019-03-01T10:13:04.143Z,12.40
2019-03-01T10:15:30.751Z,12.50
2019-03-01T10:17:57.333Z,12.60
2019-03-01T10:20:25.503Z,12.78
2019-03-01T10:22:52.246Z,13.06
2019-03-01T10:25:18.865Z,13.35
2019-03-01T10:27:45.452Z,13.56
2019-03-01T10:30:12.057Z,13.70
2019-03-01T10:32:38.633Z,13.84
2019-03-01T10:35:05.388Z,14.04
2019-03-01T10:37:31.984Z,14.28
2019-03-01T10:39:58.612Z,14.60
2019-03-01T10:42:25.206Z,14.93
2019-03-01T10:44:51.795Z,15.37
2019-03-01T10:47:18.374Z,15.87
2019-03-01T10:49:44.966Z,16.43
2019-03-01T10:52:11.542Z,16.94
2019-03-01T10:54:38.143Z,17.46
2019-03-01T10:57:04.725Z,17.99
2019-03-01T10:59:31.339Z,18.52
2019-03-01T11:01:57.915Z,19.01
2019-03-01T11:04:24.528Z,19.54
2019-03-01T11:06:51.108Z,20.10
2019-03-01T11:09:17.720Z,20.67
2019-03-01T11:11:44.297Z,21.20
2019-03-01T11:14:10.917Z,21.78
2019-03-01T11:16:37.484Z,22.29
2019-03-01T11:19:04.086Z,22.71
2019-03-01T11:21:30.660Z,23.01
2019-03-01T11:23:57.280Z,23.22
2019-03-01T11:26:23.862Z,23.43
2019-03-01T11:28:50.436Z,23.66
2019-03-01T11:31:17.003Z,23.84
2019-03-01T11:33:43.585Z,23.87
2019-03-01T11:36:10.166Z,23.70
2019-03-01T11:38:36.735Z,23.50
2019-03-01T11:41:03.354Z,23.25
2019-03-01T11:43:29.926Z,23.02
2019-03-01T11:45:56.515Z,22.78
2019-03-01T11:48:23.095Z,22.56
2019-03-01T11:50:49.665Z,22.25
2019-03-01T11:53:16.241Z,21.85
2019-03-01T11:55:42.825Z,21.46
2019-03-01T11:58:09.398Z,21.15
2019-03-01T12:00:35.964Z,20.86
2019-03-01T12:03:02.536Z,20.63
2019-03-01T12:05:29.119Z,20.39
2019-03-01T12:07:55.759Z,20.16
2019-03-01T12:10:22.374Z,19.91
2019-03-01T12:12:48.946Z,19.66
2019-03-01T12:15:15.550Z,19.48
2019-03-01T12:17:42.170Z,19.36
2019-03-01T12:20:08.752Z,19.23
2019-03-01T12:22:35.343Z,19.02
2019-03-01T12:25:01.955Z,18.95
2019-03-01T12:27:28.532Z,18.94
2019-03-01T12:29:55.140Z,18.97
2019-03-01T12:32:21.709Z,18.97
2019-03-01T12:34:48.317Z,19.04
2019-03-01T12:37:14.900Z,19.16
2019-03-01T12:39:41.506Z,19.34
2019-03-01T12:42:08.081Z,19.48
2019-03-01T12:44:34.693Z,19.58
2019-03-01T12:47:01.273Z,19.66
2019-03-01T12:49:28.051Z,19.86
2019-03-01T12:51:54.616Z,20.20
2019-03-01T12:54:21.192Z,21.00
2019-03-01T12:56:47.775Z,21.67
2019-03-01T12:59:14.353Z,22.81
2019-03-01T13:01:40.926Z,24.24
2019-03-01T13:04:07.499Z,24.12
2019-03-01T13:06:35.394Z,23.79
2019-03-01T13:09:02.377Z,23.03
2019-03-01T13:11:28.959Z,23.01
2019-03-01T13:13:55.532Z,23.07
2019-03-01T13:16:23.489Z,22.72
2019-03-01T13:18:51.432Z,22.60
2019-03-01T13:21:18.732Z,22.92
2019-03-01T13:23:45.529Z,22.59
2019-03-01T13:26:12.145Z,23.04
2019-03-01T13:28:38.735Z,23.35
2019-03-01T13:31:08.161Z,23.34
2019-03-01T13:33:34.709Z,23.01
2019-03-01T13:36:03.630Z,22.92
2019-03-01T13:38:30.358Z,22.56
2019-03-01T13:40:58.839Z,22.09
2019-03-01T13:43:27.355Z,21.59
2019-03-01T13:45:54.883Z,21.04
2019-03-01T13:48:21.462Z,20.52
2019-03-01T13:50:48.042Z,20.02
2019-03-01T13:53:14.621Z,19.78
2019-03-01T13:55:41.197Z,19.50
2019-03-01T13:58:07.774Z,19.07
2019-03-01T14:00:34.369Z,18.74
2019-03-01T14:03:00.939Z,18.51
2019-03-01T14:05:27.524Z,18.34
2019-03-01T14:07:56.569Z,18.11
2019-03-01T14:10:22.398Z,17.85
2019-03-01T14:12:48.986Z,17.58
2019-03-01T14:15:15.649Z,17.29
2019-03-01T14:17:42.260Z,16.98
2019-03-01T14:20:08.851Z,16.76
2019-03-01T14:22:35.436Z,16.58
2019-03-01T14:25:02.516Z,16.39
2019-03-01T14:27:30.424Z,16.20
2019-03-01T14:29:57.104Z,16.01
2019-03-01T14:32:23.711Z,15.85
2019-03-01T14:34:50.294Z,15.72
2019-03-01T14:37:18.639Z,15.60
2019-03-01T14:39:46.042Z,15.51
2019-03-01T14:42:12.826Z,15.39
2019-03-01T14:44:39.411Z,15.22
2019-03-01T14:47:06.000Z,15.03
2019-03-01T14:49:32.559Z,14.83
2019-03-01T14:51:59.151Z,14.67
2019-03-01T14:54:25.720Z,14.49
2019-03-01T14:56:52.304Z,14.30
2019-03-01T14:59:18.894Z,14.11
2019-03-01T15:01:45.479Z,13.95
2019-03-01T15:04:12.375Z,13.84
2019-03-01T15:06:39.225Z,13.76
2019-03-01T15:09:06.305Z,13.69
2019-03-01T15:11:32.884Z,13.62
2019-03-01T15:13:59.449Z,13.52
2019-03-01T15:16:26.038Z,13.39
2019-03-01T15:18:52.606Z,13.22
2019-03-01T15:21:19.186Z,13.07
2019-03-01T15:23:45.764Z,12.93
2019-03-01T15:26:12.339Z,12.82
2019-03-01T15:28:38.919Z,12.70
2019-03-01T15:31:05.640Z,12.56
2019-03-01T15:33:32.233Z,12.47
2019-03-01T15:35:58.801Z,12.36
2019-03-01T15:38:27.687Z,12.25
2019-03-01T15:40:53.757Z,12.15
2019-03-01T15:43:20.323Z,12.03
2019-03-01T15:45:46.939Z,11.97
2019-03-01T15:48:15.789Z,11.89
2019-03-01T15:50:42.370Z,11.82
2019-03-01T15:53:08.965Z,11.73
2019-03-01T15:55:35.546Z,11.63
2019-03-01T15:58:02.178Z,11.54
2019-03-01T16:00:29.436Z,11.47
2019-03-01T16:02:57.255Z,11.42
2019-03-01T16:05:23.841Z,11.35
2019-03-01T16:07:50.452Z,11.29
2019-03-01T16:10:17.025Z,11.22
2019-03-01T16:12:43.634Z,11.16
2019-03-01T16:15:10.216Z,11.10
2019-03-01T16:17:36.834Z,11.04
2019-03-01T16:20:03.408Z,10.97
2019-03-01T16:22:30.007Z,10.92
2019-03-01T16:24:56.590Z,10.86
2019-03-01T16:27:23.199Z,10.79
2019-03-01T16:29:49.771Z,10.74
2019-03-01T16:32:16.373Z,10.68
2019-03-01T16:34:42.961Z,10.61
2019-03-01T16:37:09.585Z,10.52
2019-03-01T16:39:36.163Z,10.43
2019-03-01T16:42:02.829Z,10.35
2019-03-01T16:44:29.541Z,10.28
2019-03-01T16:46:56.139Z,10.21
2019-03-01T16:49:23.707Z,10.15
2019-03-01T16:51:53.966Z,10.10
2019-03-01T16:54:19.331Z,10.06
2019-03-01T16:56:46.042Z,10.03
2019-03-01T16:59:13.710Z,9.99
2019-03-01T17:01:40.820Z,9.97
2019-03-01T17:04:07.484Z,9.91
2019-03-01T17:06:34.094Z,9.86
2019-03-01T17:09:00.665Z,9.82
2019-03-01T17:11:27.292Z,9.76
2019-03-01T17:13:53.875Z,9.71
2019-03-01T17:16:23.566Z,9.64
2019-03-01T17:18:48.773Z,9.59
2019-03-01T17:21:16.540Z,9.54
2019-03-01T17:23:43.315Z,9.49
2019-03-01T17:26:09.881Z,9.43
2019-03-01T17:28:36.451Z,9.38
2019-03-01T17:31:03.036Z,9.35
2019-03-01T17:33:29.604Z,9.31
2019-03-01T17:35:56.194Z,9.26
2019-03-01T17:38:22.767Z,9.25
2019-03-01T17:40:49.344Z,9.22
2019-03-01T17:43:15.933Z,9.21
2019-03-01T17:45:42.504Z,9.17
2019-03-01T17:48:09.091Z,9.16
2019-03-01T17:50:35.659Z,9.12
2019-03-01T17:53:02.225Z,9.09
2019-03-01T17:55:28.809Z,9.08
2019-03-01T17:57:55.387Z,9.07
2019-03-01T18:00:25.447Z,9.05
2019-03-01T18:02:52.095Z,9.05
2019-03-01T18:05:18.614Z,9.01
2019-03-01T18:07:45.198Z,8.97
2019-03-01T18:10:14.043Z,8.93
2019-03-01T18:12:40.652Z,8.90
2019-03-01T18:15:08.639Z,8.87
2019-03-01T18:17:36.409Z,8.81
2019-03-01T18:20:04.267Z,8.75
2019-03-01T18:22:31.234Z,8.69
2019-03-01T18:24:57.845Z,8.66
2019-03-01T18:27:24.450Z,8.64
2019-03-01T18:29:51.024Z,8.61
2019-03-01T18:32:17.636Z,8.60
2019-03-01T18:34:44.210Z,8.60
2019-03-01T18:37:19.154Z,8.59
2019-03-01T18:39:41.168Z,8.58
2019-03-01T18:42:07.521Z,8.59
2019-03-01T18:44:34.090Z,8.59
2019-03-01T18:47:00.676Z,8.59
2019-03-01T18:49:27.244Z,8.58
2019-03-01T18:51:53.818Z,8.57
2019-03-01T18:54:20.400Z,8.55
2019-03-01T18:56:46.972Z,8.53
2019-03-01T18:59:13.887Z,8.48
2019-03-01T19:01:42.977Z,8.43
2019-03-01T19:04:09.210Z,8.38
2019-03-01T19:06:35.775Z,8.35
2019-03-01T19:09:02.396Z,8.30
2019-03-01T19:11:28.973Z,8.27
2019-03-01T19:13:58.497Z,8.21
2019-03-01T19:16:25.359Z,8.11
2019-03-01T19:18:53.955Z,7.95
2019-03-01T19:21:20.444Z,7.76
2019-03-01T19:23:47.034Z,7.56
2019-03-01T19:26:13.601Z,7.37
2019-03-01T19:28:40.168Z,7.21
2019-03-01T19:31:06.854Z,7.06
2019-03-01T19:33:34.707Z,6.93
2019-03-01T19:36:03.529Z,6.85
2019-03-01T19:38:30.316Z,6.79
2019-03-01T19:40:56.892Z,6.76
2019-03-01T19:43:23.481Z,6.74
2019-03-01T19:45:50.057Z,6.71
2019-03-01T19:48:16.633Z,6.71
2019-03-01T19:50:43.632Z,6.66
2019-03-01T19:53:10.267Z,6.61
2019-03-01T19:55:36.846Z,6.56
2019-03-01T19:58:03.417Z,6.53
2019-03-01T20:00:30.008Z,6.49
2019-03-01T20:02:56.582Z,6.46
2019-03-01T20:05:27.928Z,6.42
2019-03-01T20:07:55.637Z,6.39
2019-03-01T20:10:22.256Z,6.35
2019-03-01T20:12:48.870Z,6.30
2019-03-01T20:15:15.433Z,6.24
2019-03-01T20:17:44.637Z,6.20
2019-03-01T20:20:10.336Z,6.14
2019-03-01T20:22:36.945Z,6.09
2019-03-01T20:25:03.524Z,6.03
2019-03-01T20:27:30.093Z,5.97
2019-03-01T20:29:56.675Z,5.94
2019-03-01T20:32:23.253Z,5.88
2019-03-01T20:34:49.834Z,5.83
2019-03-01T20:37:16.527Z,5.78
2019-03-01T20:39:43.091Z,5.73
2019-03-01T20:42:10.776Z,5.69
2019-03-01T20:44:37.377Z,5.63
2019-03-01T20:47:03.948Z,5.59
2019-03-01T20:49:30.525Z,5.55
2019-03-01T20:51:58.709Z,5.51
2019-03-01T20:54:27.078Z,5.45
2019-03-01T20:56:53.754Z,5.40
2019-03-01T20:59:20.458Z,5.35
2019-03-01T21:01:47.043Z,5.26
2019-03-01T21:04:13.660Z,5.17
2019-03-01T21:06:40.550Z,5.09
2019-03-01T21:09:07.420Z,5.02
2019-03-01T21:11:34.001Z,4.97
2019-03-01T21:14:00.615Z,4.89
2019-03-01T21:16:27.328Z,4.82
2019-03-01T21:18:53.919Z,4.76
2019-03-01T21:21:20.498Z,4.71
2019-03-01T21:23:47.657Z,4.66
2019-03-01T21:26:15.770Z,4.61
2019-03-01T21:28:43.474Z,4.53
2019-03-01T21:31:10.045Z,4.46
2019-03-01T21:33:38.014Z,4.42
2019-03-01T21:36:04.598Z,4.36
2019-03-01T21:38:31.205Z,4.28
2019-03-01T21:40:57.776Z,4.20
2019-03-01T21:43:24.383Z,4.11
2019-03-01T21:45:50.958Z,4.03
2019-03-01T21:48:18.645Z,3.94
2019-03-01T21:50:45.380Z,3.85
2019-03-01T21:53:11.957Z,3.75
2019-03-01T21:55:38.538Z,3.66
2019-03-01T21:58:06.535Z,3.60
2019-03-01T22:00:34.871Z,3.52
2019-03-01T22:03:01.579Z,3.45
2019-03-01T22:05:28.149Z,3.37
2019-03-01T22:07:54.712Z,3.30
2019-03-01T22:10:21.316Z,3.23
2019-03-01T22:12:47.998Z,3.16
2019-03-01T22:15:14.610Z,3.11
2019-03-01T22:17:41.176Z,3.08
2019-03-01T22:20:08.929Z,3.05
2019-03-01T22:22:37.554Z,3.02
2019-03-01T22:25:04.464Z,3.01
2019-03-01T22:27:31.035Z,2.98
2019-03-01T22:29:57.648Z,2.96
2019-03-01T22:32:24.221Z,2.96
2019-03-01T22:34:50.821Z,2.95
2019-03-01T22:37:17.400Z,2.95
2019-03-01T22:39:44.000Z,2.95
2019-03-01T22:42:11.436Z,2.97
2019-03-01T22:44:38.911Z,2.99
2019-03-01T22:47:05.488Z,3.01
2019-03-01T22:49:32.767Z,3.01
2019-03-01T22:51:59.450Z,3.01
2019-03-01T22:54:26.053Z,3.03
2019-03-01T22:56:52.686Z,3.02
2019-03-01T22:59:19.291Z,3.02
2019-03-01T23:01:45.859Z,3.01
2019-03-01T23:04:12.500Z,3.00
2019-03-01T23:06:39.079Z,2.98
2019-03-01T23:09:10.220Z,2.98
2019-03-01T23:11:33.971Z,2.96
2019-03-01T23:14:00.552Z,2.96
2019-03-01T23:16:27.118Z,2.95
2019-03-01T23:18:56.584Z,2.96
2019-03-01T23:21:21.997Z,2.94
2019-03-01T23:23:48.591Z,2.93
2019-03-01T23:26:15.161Z,2.91
2019-03-01T23:28:43.797Z,2.91
2019-03-01T23:31:10.038Z,2.88
2019-03-01T23:33:36.605Z,2.88
2019-03-01T23:36:03.179Z,2.85
2019-03-01T23:38:29.759Z,2.81
2019-03-01T23:40:56.331Z,2.80
2019-03-01T23:43:22.902Z,2.78
2019-03-01T23:45:49.867Z,2.78
2019-03-01T23:48:17.794Z,2.77
2019-03-01T23:50:44.439Z,2.76
2019-03-01T23:53:11.013Z,2.74
2019-03-01T23:55:37.586Z,2.74
2019-03-01T23:58:06.299Z,2.71
